Time;durP1;ratioP1;P1;durP2;ratioP2;P2;SDS_P1;SDS_P2;PMS_P1;PMS_P2;Temp;Humidity;BMP_temperature;BMP_pressure;BME280_temperature;BME280_humidity;BME280_pressure;Samples;Min_cycle;Max_cycle;Signal;HPM_P1;HPM_P2
2024/01/10 00:01:20;;;;;;;18.40;9.25;;;-4.00;99.90;;;;;;5050899;28;20087;-63
2024/01/10 00:03:46;;;;;;;17.13;9.10;;;-4.00;99.90;;;;;;5050585;28;20514;-63
2024/01/10 00:06:12;;;;;;;17.70;9.07;;;-4.10;99.90;;;;;;5041737;28;20033;-63
2024/01/10 00:08:37;;;;;;;17.30;9.38;;;-4.10;99.90;;;;;;5044668;28;20044;-63
2024/01/10 00:11:03;;;;;;;18.10;9.05;;;-4.20;99.90;;;;;;5050917;28;20527;-66
2024/01/10 00:13:31;;;;;;;19.25;10.07;;;-4.20;99.90;;;;;;5043165;28;20782;-66
2024/01/10 00:15:58;;;;;;;20.08;8.52;;;-4.20;99.90;;;;;;5050487;28;20072;-63
2024/01/10 00:18:24;;;;;;;17.17;9.30;;;-4.20;99.90;;;;;;5053695;28;20040;-63
2024/01/10 00:20:53;;;;;;;19.23;9.45;;;-4.20;99.90;;;;;;5051649;28;20394;-66
2024/01/10 00:23:19;;;;;;;19.50;9.85;;;-4.30;99.90;;;;;;5044583;28;20029;-66
2024/01/10 00:25:45;;;;;;;18.48;9.82;;;-4.30;99.90;;;;;;5054111;28;20037;-66
2024/01/10 00:28:11;;;;;;;20.65;10.32;;;-4.40;99.90;;;;;;5054578;28;20149;-66
2024/01/10 00:30:37;;;;;;;21.08;9.80;;;-4.40;99.90;;;;;;5041714;28;20040;-66
2024/01/10 00:33:02;;;;;;;21.60;10.88;;;-4.40;99.90;;;;;;5051301;28;20052;-64
2024/01/10 00:35:28;;;;;;;19.48;10.13;;;-4.50;99.90;;;;;;5052877;28;20415;-63
2024/01/10 00:37:54;;;;;;;20.48;10.00;;;-4.50;99.90;;;;;;5049043;28;20479;-62
2024/01/10 00:40:19;;;;;;;19.48;10.50;;;-4.60;99.90;;;;;;5034687;28;20043;-65
2024/01/10 00:42:45;;;;;;;20.90;9.45;;;-4.60;99.90;;;;;;5053628;28;20036;-63
2024/01/10 00:45:10;;;;;;;19.67;10.15;;;-4.60;99.90;;;;;;5054226;28;20041;-64
2024/01/10 00:47:36;;;;;;;20.10;10.43;;;-4.70;99.90;;;;;;5039567;28;20507;-63
2024/01/10 00:50:01;;;;;;;21.08;10.57;;;-4.70;99.90;;;;;;5048606;28;20448;-63
2024/01/10 00:52:27;;;;;;;20.23;10.43;;;-4.70;99.90;;;;;;5053572;28;20499;-63
2024/01/10 00:54:52;;;;;;;22.50;10.40;;;-4.70;99.90;;;;;;5044780;28;20041;-64
2024/01/10 00:57:18;;;;;;;19.65;10.35;;;-4.70;99.90;;;;;;5051245;28;20037;-66
2024/01/10 00:59:43;;;;;;;20.48;10.07;;;-4.70;99.90;;;;;;5053662;28;20445;-66
2024/01/10 01:02:09;;;;;;;20.35;10.40;;;-4.80;99.90;;;;;;5053701;28;20494;-67
2024/01/10 01:04:34;;;;;;;19.30;10.38;;;-4.80;99.90;;;;;;5032586;28;20560;-66
2024/01/10 01:07:00;;;;;;;21.58;9.93;;;-4.80;99.90;;;;;;5047913;28;20122;-66
2024/01/10 01:09:25;;;;;;;16.33;9.38;;;-4.80;99.90;;;;;;5053443;28;20127;-66
2024/01/10 01:11:51;;;;;;;21.08;10.68;;;-4.80;99.90;;;;;;5042411;28;20113;-65
2024/01/10 01:14:16;;;;;;;19.80;10.02;;;-4.80;99.90;;;;;;5052276;28;20052;-63
2024/01/10 01:16:42;;;;;;;18.13;10.18;;;-4.90;99.90;;;;;;5053347;28;20041;-66
2024/01/10 01:19:08;;;;;;;20.38;9.68;;;-4.90;99.90;;;;;;5050163;28;20561;-65
2024/01/10 01:21:33;;;;;;;18.75;9.80;;;-4.90;99.90;;;;;;5046807;28;20588;-64
2024/01/10 01:23:59;;;;;;;20.05;9.23;;;-5.00;99.90;;;;;;5051584;28;20037;-66
2024/01/10 01:26:24;;;;;;;15.93;9.38;;;-5.00;99.90;;;;;;5053312;28;20127;-65
2024/01/10 01:28:50;;;;;;;19.25;9.35;;;-5.00;99.90;;;;;;5048494;28;20119;-64
2024/01/10 01:31:15;;;;;;;21.67;9.50;;;-5.10;99.90;;;;;;5036753;28;20116;-62
2024/01/10 01:33:41;;;;;;;18.52;9.60;;;-5.10;99.90;;;;;;5052865;28;20048;-66
2024/01/10 01:36:06;;;;;;;20.05;9.85;;;-5.10;99.90;;;;;;5049413;28;20505;-66
2024/01/10 01:38:32;;;;;;;20.13;10.15;;;-5.20;99.90;;;;;;5052303;28;20554;-66
2024/01/10 01:40:58;;;;;;;18.73;10.02;;;-5.20;99.90;;;;;;5052796;28;20044;-64
2024/01/10 01:43:25;;;;;;;19.10;9.10;;;-5.20;99.90;;;;;;5048099;28;20037;-63
2024/01/10 01:45:53;;;;;;;19.98;10.15;;;-5.30;99.90;;;;;;5039436;28;20096;-63
2024/01/10 01:48:20;;;;;;;21.77;10.80;;;-5.30;99.90;;;;;;5049297;28;20074;-63
2024/01/10 01:50:47;;;;;;;18.77;10.02;;;-5.30;99.90;;;;;;5052289;28;20041;-66
2024/01/10 01:53:16;;;;;;;21.42;10.90;;;-5.30;99.90;;;;;;5045353;28;20041;-66
2024/01/10 01:55:45;;;;;;;20.15;10.23;;;-5.30;99.90;;;;;;5044099;28;20051;-66
2024/01/10 01:58:12;;;;;;;19.48;9.70;;;-5.20;99.90;;;;;;5052074;28;20040;-66
2024/01/10 02:00:38;;;;;;;19.67;10.52;;;-5.20;99.90;;;;;;5052783;28;20048;-66
2024/01/10 02:03:09;;;;;;;23.10;10.70;;;-5.20;99.90;;;;;;5048484;28;20025;-66
2024/01/10 02:05:34;;;;;;;19.57;10.17;;;-5.10;99.90;;;;;;5051988;28;20074;-64
2024/01/10 02:08:00;;;;;;;20.08;10.20;;;-5.10;99.90;;;;;;5052501;28;20039;-63
2024/01/10 02:10:25;;;;;;;19.83;9.98;;;-5.20;99.90;;;;;;5039569;28;20495;-63
2024/01/10 02:12:51;;;;;;;20.15;11.23;;;-5.10;99.90;;;;;;5049455;28;20056;-65
2024/01/10 02:15:17;;;;;;;20.92;10.98;;;-5.10;99.90;;;;;;5052064;28;20045;-65
2024/01/10 02:17:43;;;;;;;20.63;10.98;;;-5.10;99.90;;;;;;5045994;28;20037;-66
2024/01/10 02:20:20;;;;;;;24.08;10.70;;;-5.20;99.90;;;;;;5046076;28;20040;-65
2024/01/10 02:22:46;;;;;;;19.63;10.77;;;-5.20;99.90;;;;;;5051915;28;20040;-66
2024/01/10 02:25:13;;;;;;;28.20;11.65;;;-5.20;99.90;;;;;;5049561;28;20048;-66
2024/01/10 02:27:40;;;;;;;20.42;10.82;;;-5.20;99.90;;;;;;5050436;28;20059;-66
2024/01/10 02:30:07;;;;;;;23.73;11.25;;;-5.20;99.90;;;;;;5042520;28;20052;-64
2024/01/10 02:32:33;;;;;;;24.10;11.85;;;-5.20;99.90;;;;;;5050292;28;20103;-63
2024/01/10 02:34:59;;;;;;;20.77;10.60;;;-5.20;99.90;;;;;;5051961;28;20507;-63
2024/01/10 02:37:25;;;;;;;23.35;11.65;;;-5.30;99.90;;;;;;5048436;28;20041;-63
2024/01/10 02:39:50;;;;;;;22.50;11.60;;;-5.30;99.90;;;;;;5050763;28;20078;-64
2024/01/10 02:42:16;;;;;;;21.73;11.45;;;-5.30;99.90;;;;;;5051313;28;20063;-63
2024/01/10 02:44:42;;;;;;;21.63;11.75;;;-5.30;99.90;;;;;;5049788;28;20116;-65
2024/01/10 02:47:08;;;;;;;21.80;11.85;;;-5.30;99.90;;;;;;5039109;28;20125;-65
2024/01/10 02:49:33;;;;;;;23.42;11.93;;;-5.30;99.90;;;;;;5048713;28;20048;-66
2024/01/10 02:51:59;;;;;;;24.90;12.52;;;-5.30;99.90;;;;;;5051944;28;20048;-66
2024/01/10 02:54:25;;;;;;;23.80;12.32;;;-5.30;99.90;;;;;;5044595;28;20462;-66
2024/01/10 02:56:51;;;;;;;24.77;12.18;;;-5.30;99.90;;;;;;5046511;28;20041;-66
2024/01/10 02:59:16;;;;;;;22.10;12.00;;;-5.30;99.90;;;;;;5051337;28;20503;-63
2024/01/10 03:01:42;;;;;;;25.08;11.98;;;-5.30;99.90;;;;;;5048353;28;20127;-64
2024/01/10 03:04:07;;;;;;;23.10;11.32;;;-5.30;99.90;;;;;;5037826;28;20033;-63
2024/01/10 03:06:33;;;;;;;29.65;12.45;;;-5.30;99.90;;;;;;5049924;28;20525;-63
2024/01/10 03:08:58;;;;;;;21.58;11.00;;;-5.20;99.90;;;;;;5051463;28;20499;-64
2024/01/10 03:11:24;;;;;;;24.73;11.75;;;-5.20;99.90;;;;;;5046665;28;20047;-64
2024/01/10 03:14:04;;;;;;;22.92;11.15;;;-5.20;99.90;;;;;;5050874;28;20037;-63
2024/01/10 03:16:32;;;;;;;26.75;11.57;;;-5.20;99.90;;;;;;5051194;28;20053;-63
2024/01/10 03:18:58;;;;;;;18.88;9.45;;;-5.20;99.90;;;;;;5043125;28;20041;-63
2024/01/10 03:21:27;;;;;;;21.35;11.95;;;-5.10;99.90;;;;;;5047145;28;20401;-63
2024/01/10 03:23:55;;;;;;;26.00;11.15;;;-5.00;99.90;;;;;;5050779;28;20527;-65
2024/01/10 03:26:20;;;;;;;22.40;10.68;;;-5.00;99.90;;;;;;5051802;28;20045;-63
2024/01/10 03:28:46;;;;;;;25.70;11.95;;;-4.90;99.90;;;;;;5043619;28;20043;-63
2024/01/10 03:31:12;;;;;;;23.55;11.40;;;-4.90;99.90;;;;;;5046951;28;20044;-63
2024/01/10 03:33:38;;;;;;;25.58;12.05;;;-4.90;99.90;;;;;;5050652;28;20048;-64
2024/01/10 03:36:04;;;;;;;20.77;9.95;;;-4.90;99.90;;;;;;5039580;28;20088;-65
2024/01/10 03:38:30;;;;;;;18.20;9.38;;;-4.90;99.90;;;;;;5045202;28;20098;-66
2024/01/10 03:40:55;;;;;;;24.10;11.57;;;-4.80;99.90;;;;;;5051379;28;20037;-63
2024/01/10 03:43:21;;;;;;;25.45;10.63;;;-4.80;99.90;;;;;;5051125;28;20033;-65
2024/01/10 03:45:46;;;;;;;29.13;11.23;;;-4.80;99.90;;;;;;5047029;28;20033;-66
2024/01/10 03:48:12;;;;;;;22.50;10.98;;;-4.80;99.90;;;;;;5048486;28;20089;-66
2024/01/10 03:50:37;;;;;;;22.38;11.65;;;-4.80;99.90;;;;;;5050992;28;20120;-66
2024/01/10 03:53:03;;;;;;;23.80;11.55;;;-4.80;99.90;;;;;;5037629;28;20084;-67
2024/01/10 03:55:29;;;;;;;22.88;10.73;;;-4.80;99.90;;;;;;5045969;28;20124;-67
2024/01/10 03:57:56;;;;;;;20.33;10.75;;;-4.80;99.90;;;;;;5054946;28;20041;-66
2024/01/10 04:00:21;;;;;;;21.80;10.38;;;-4.80;99.90;;;;;;5048379;28;20641;-66
2024/01/10 04:02:47;;;;;;;23.80;11.07;;;-4.80;99.90;;;;;;5039607;28;20061;-66
2024/01/10 04:05:13;;;;;;;22.00;10.80;;;-4.80;99.90;;;;;;5054573;28;20116;-66
2024/01/10 04:07:43;;;;;;;21.50;10.88;;;-4.80;99.90;;;;;;5053078;28;20052;-62
2024/01/10 04:10:13;;;;;;;23.48;10.93;;;-4.80;99.90;;;;;;5044966;28;20045;-66
2024/01/10 04:12:43;;;;;;;22.00;11.13;;;-4.80;99.90;;;;;;5053932;28;20041;-66
2024/01/10 04:15:09;;;;;;;25.98;11.68;;;-4.80;99.90;;;;;;5054859;28;20033;-66
2024/01/10 04:17:34;;;;;;;21.00;10.98;;;-4.90;99.90;;;;;;5048460;28;20040;-63
2024/01/10 04:20:00;;;;;;;23.38;10.60;;;-4.90;99.90;;;;;;5051722;28;20120;-65
2024/01/10 04:22:25;;;;;;;25.50;11.48;;;-4.90;99.90;;;;;;5053867;28;20041;-63
2024/01/10 04:24:51;;;;;;;21.00;10.75;;;-4.90;99.90;;;;;;5050903;28;20041;-63
2024/01/10 04:27:18;;;;;;;22.55;11.13;;;-4.90;99.90;;;;;;5040453;28;20048;-63
2024/01/10 04:29:47;;;;;;;22.70;11.52;;;-4.90;99.90;;;;;;5053901;28;20508;-63
2024/01/10 04:32:13;;;;;;;21.73;10.90;;;-4.90;99.90;;;;;;5054373;28;20439;-64
2024/01/10 04:34:38;;;;;;;26.92;12.45;;;-4.90;99.90;;;;;;5046033;28;20166;-64
2024/01/10 04:37:04;;;;;;;21.65;10.68;;;-4.90;99.90;;;;;;5049013;28;20422;-63
2024/01/10 04:39:29;;;;;;;23.17;11.52;;;-4.90;99.90;;;;;;5053381;28;20499;-67
2024/01/10 04:41:55;;;;;;;20.38;10.55;;;-4.90;99.90;;;;;;5044904;28;20124;-66
2024/01/10 04:44:21;;;;;;;22.40;11.57;;;-4.90;99.90;;;;;;5038373;28;20025;-64
2024/01/10 04:46:46;;;;;;;22.30;11.02;;;-4.90;99.90;;;;;;5052948;28;20040;-62
2024/01/10 04:49:12;;;;;;;26.10;11.38;;;-4.90;99.90;;;;;;5053489;28;20045;-66
2024/01/10 04:51:39;;;;;;;23.88;11.45;;;-4.90;99.90;;;;;;5048653;28;20043;-66
2024/01/10 04:54:04;;;;;;;19.25;9.82;;;-4.90;99.90;;;;;;5034842;28;20033;-66
2024/01/10 04:56:30;;;;;;;23.17;10.50;;;-4.80;99.90;;;;;;5051470;28;20064;-66
2024/01/10 04:58:55;;;;;;;19.13;10.05;;;-4.80;99.90;;;;;;5039454;28;20387;-66
2024/01/10 05:01:21;;;;;;;25.33;11.55;;;-4.80;99.90;;;;;;5049969;28;20029;-66
2024/01/10 05:03:46;;;;;;;20.40;10.07;;;-4.80;99.90;;;;;;5052667;28;20090;-66
2024/01/10 05:06:12;;;;;;;21.75;10.70;;;-4.90;99.90;;;;;;5049015;28;20053;-63
2024/01/10 05:08:38;;;;;;;21.40;10.10;;;-4.90;99.90;;;;;;5047769;28;20033;-63
2024/01/10 05:11:03;;;;;;;28.10;10.48;;;-4.90;99.90;;;;;;5053637;28;20060;-63
2024/01/10 05:13:29;;;;;;;19.77;10.55;;;-5.00;99.90;;;;;;5053520;28;20676;-67
2024/01/10 05:15:55;;;;;;;20.45;10.95;;;-5.00;99.90;;;;;;5043737;28;20136;-66
2024/01/10 05:18:21;;;;;;;23.45;10.63;;;-5.00;99.90;;;;;;5045962;28;20116;-66
2024/01/10 05:20:47;;;;;;;24.63;11.82;;;-4.90;99.90;;;;;;5053097;28;20037;-66
2024/01/10 05:23:12;;;;;;;24.92;11.48;;;-4.90;99.90;;;;;;5049910;28;20575;-66
2024/01/10 05:25:38;;;;;;;24.55;11.77;;;-4.90;99.90;;;;;;5045992;28;20037;-64
2024/01/10 05:28:04;;;;;;;19.02;10.60;;;-4.90;99.90;;;;;;5052933;28;20431;-63
2024/01/10 05:30:29;;;;;;;22.35;11.43;;;-4.90;99.90;;;;;;5052397;28;20056;-66
2024/01/10 05:32:55;;;;;;;22.95;11.63;;;-4.90;99.90;;;;;;5038244;28;20064;-65
2024/01/10 05:35:21;;;;;;;26.42;11.85;;;-4.90;99.90;;;;;;5043529;28;20048;-65
2024/01/10 05:37:46;;;;;;;22.17;11.90;;;-4.90;99.90;;;;;;5052884;28;20068;-64
2024/01/10 05:40:12;;;;;;;23.15;11.38;;;-4.80;99.90;;;;;;5048574;28;20048;-63
2024/01/10 05:42:37;;;;;;;26.00;12.50;;;-4.80;99.90;;;;;;5043809;28;20090;-63
2024/01/10 05:45:04;;;;;;;25.55;12.52;;;-4.80;99.90;;;;;;5052539;28;20033;-63
2024/01/10 05:47:30;;;;;;;28.33;13.23;;;-4.90;99.90;;;;;;5052662;28;20072;-66
2024/01/10 05:49:55;;;;;;;24.38;12.55;;;-4.90;99.90;;;;;;5039712;28;20072;-66
2024/01/10 05:52:22;;;;;;;27.70;14.00;;;-5.00;99.90;;;;;;5052014;28;20036;-66
2024/01/10 05:54:48;;;;;;;27.25;12.70;;;-5.00;99.90;;;;;;5044855;28;20029;-66
2024/01/10 05:57:14;;;;;;;26.17;12.75;;;-5.00;99.90;;;;;;5046402;28;20483;-62
2024/01/10 05:59:40;;;;;;;25.58;13.23;;;-5.00;99.90;;;;;;5038659;28;20148;-62
2024/01/10 06:02:05;;;;;;;28.65;13.32;;;-5.10;99.90;;;;;;5044823;28;20214;-63
2024/01/10 06:04:31;;;;;;;28.73;14.05;;;-5.10;99.90;;;;;;5048257;28;20102;-64
2024/01/10 06:07:00;;;;;;;30.88;13.38;;;-5.10;99.90;;;;;;5036325;28;20039;-64
2024/01/10 06:09:27;;;;;;;28.92;13.98;;;-5.10;99.90;;;;;;5048868;28;20045;-63
2024/01/10 06:11:52;;;;;;;28.05;13.70;;;-5.10;99.90;;;;;;5069163;28;20127;-65
2024/01/10 06:14:18;;;;;;;25.48;12.45;;;-5.10;99.90;;;;;;5053819;28;20140;-62
2024/01/10 06:16:44;;;;;;;31.02;15.48;;;-5.00;99.90;;;;;;5040428;28;20037;-63
2024/01/10 06:19:11;;;;;;;28.60;14.20;;;-5.00;99.90;;;;;;5043014;28;20495;-65
2024/01/10 06:21:37;;;;;;;28.95;13.82;;;-5.00;99.90;;;;;;5037067;28;20508;-62
2024/01/10 06:24:03;;;;;;;32.22;14.57;;;-5.00;99.90;;;;;;5043414;28;20135;-65
2024/01/10 06:26:29;;;;;;;30.52;14.45;;;-5.00;99.90;;;;;;5040187;28;20128;-63
2024/01/10 06:28:54;;;;;;;30.35;14.77;;;-5.00;99.90;;;;;;5039729;28;20190;-65
2024/01/10 06:31:20;;;;;;;25.92;14.07;;;-5.00;99.90;;;;;;5037572;28;20157;-64
2024/01/10 06:33:46;;;;;;;33.58;15.25;;;-5.00;99.90;;;;;;5039073;28;20083;-61
2024/01/10 06:36:12;;;;;;;30.42;14.70;;;-5.00;99.90;;;;;;5039858;28;20044;-62
2024/01/10 06:38:40;;;;;;;29.65;14.48;;;-5.00;99.90;;;;;;5041212;28;20044;-61
2024/01/10 06:41:09;;;;;;;30.23;13.77;;;-5.00;99.90;;;;;;5044081;28;20791;-62
2024/01/10 06:43:36;;;;;;;31.00;14.50;;;-5.00;99.90;;;;;;5048319;28;20115;-62
2024/01/10 06:46:03;;;;;;;28.05;13.57;;;-5.00;99.90;;;;;;5047958;28;20040;-62
2024/01/10 06:48:29;;;;;;;30.15;14.05;;;-5.00;99.90;;;;;;5039598;28;20094;-62
2024/01/10 06:50:55;;;;;;;24.73;12.35;;;-5.00;99.90;;;;;;5036595;28;20107;-63
2024/01/10 06:53:21;;;;;;;29.02;14.13;;;-4.90;99.90;;;;;;5047516;28;20111;-62
2024/01/10 06:55:47;;;;;;;29.50;14.52;;;-4.90;99.90;;;;;;5041006;28;20041;-62
2024/01/10 06:58:12;;;;;;;29.27;14.27;;;-5.00;99.90;;;;;;5040045;28;20040;-66
2024/01/10 07:00:38;;;;;;;33.05;15.25;;;-4.90;99.90;;;;;;5039277;28;20170;-62
2024/01/10 07:03:04;;;;;;;30.42;13.95;;;-4.90;99.90;;;;;;5037098;28;20033;-62
2024/01/10 07:05:31;;;;;;;31.00;14.23;;;-4.90;99.90;;;;;;5043457;28;20384;-62
2024/01/10 07:07:57;;;;;;;31.73;14.10;;;-4.90;99.90;;;;;;5034735;28;20056;-64
2024/01/10 07:10:27;;;;;;;32.85;14.75;;;-4.90;99.90;;;;;;5038997;28;20484;-62
2024/01/10 07:12:53;;;;;;;27.35;13.70;;;-4.90;99.90;;;;;;5037176;28;20042;-62
2024/01/10 07:15:19;;;;;;;32.00;16.25;;;-4.80;99.90;;;;;;5042275;28;20048;-62
2024/01/10 07:17:45;;;;;;;32.42;16.40;;;-4.80;99.90;;;;;;5041123;28;20028;-63
2024/01/10 07:20:12;;;;;;;25.70;12.98;;;-4.80;99.90;;;;;;5049078;28;20473;-63
2024/01/10 07:22:41;;;;;;;32.47;14.85;;;-4.80;99.90;;;;;;5031225;28;20077;-62
2024/01/10 07:25:07;;;;;;;26.05;12.73;;;-4.90;99.90;;;;;;5044927;28;20045;-62
2024/01/10 07:27:33;;;;;;;31.42;15.52;;;-4.80;99.90;;;;;;5040397;28;20045;-63
2024/01/10 07:29:59;;;;;;;30.98;15.30;;;-4.80;99.90;;;;;;5045264;28;20580;-62
2024/01/10 07:32:24;;;;;;;29.95;14.98;;;-4.90;99.90;;;;;;5051718;28;20372;-63
2024/01/10 07:34:50;;;;;;;28.80;13.82;;;-4.80;99.90;;;;;;5053558;28;20075;-62
2024/01/10 07:37:20;;;;;;;29.70;14.63;;;-4.90;99.90;;;;;;5050240;28;20159;-65
2024/01/10 07:39:46;;;;;;;25.57;11.77;;;-4.90;99.90;;;;;;5054536;28;20029;-63
2024/01/10 07:42:12;;;;;;;26.10;12.93;;;-4.90;99.90;;;;;;5054933;28;20076;-64
2024/01/10 07:44:37;;;;;;;33.45;16.23;;;-4.90;99.90;;;;;;5045623;28;20067;-64
2024/01/10 07:47:03;;;;;;;39.05;16.60;;;-4.80;99.90;;;;;;5041015;28;20044;-63
2024/01/10 07:49:29;;;;;;;32.78;16.25;;;-4.80;99.90;;;;;;5052971;28;20396;-62
2024/01/10 07:51:55;;;;;;;31.75;16.42;;;-4.80;99.90;;;;;;5054499;28;20053;-65
2024/01/10 07:54:21;;;;;;;33.28;16.52;;;-4.80;99.90;;;;;;5044790;28;20482;-65
2024/01/10 07:56:46;;;;;;;32.72;16.17;;;-4.80;99.90;;;;;;5038913;28;20048;-65
2024/01/10 07:59:15;;;;;;;32.50;16.15;;;-4.80;99.90;;;;;;5054694;28;20031;-62
2024/01/10 08:01:44;;;;;;;26.83;14.38;;;-4.80;99.90;;;;;;5050791;28;20045;-62
2024/01/10 08:04:10;;;;;;;30.55;15.75;;;-4.80;99.90;;;;;;5036646;28;20084;-62
2024/01/10 08:06:35;;;;;;;32.08;15.43;;;-4.80;99.90;;;;;;5052630;28;20077;-62
2024/01/10 08:09:04;;;;;;;27.90;14.35;;;-4.80;99.90;;;;;;5054488;28;20071;-65
2024/01/10 08:11:29;;;;;;;30.17;14.38;;;-4.80;99.90;;;;;;5045945;28;20051;-65
2024/01/10 08:13:55;;;;;;;31.20;14.30;;;-4.80;99.90;;;;;;5044988;28;20037;-65
2024/01/10 08:16:21;;;;;;;32.25;14.85;;;-4.80;99.90;;;;;;5054362;28;20041;-65
2024/01/10 08:18:46;;;;;;;30.50;15.05;;;-4.70;99.90;;;;;;5046142;28;20037;-65
2024/01/10 08:21:12;;;;;;;25.05;12.88;;;-4.70;99.90;;;;;;5049063;28;20068;-62
2024/01/10 08:23:37;;;;;;;27.13;14.00;;;-4.60;99.90;;;;;;5053551;28;20033;-63
2024/01/10 08:26:08;;;;;;;30.70;14.05;;;-4.60;99.90;;;;;;5054088;28;20041;-62
2024/01/10 08:28:33;;;;;;;25.42;13.50;;;-4.60;99.90;;;;;;5038168;28;20070;-62
2024/01/10 08:30:59;;;;;;;28.63;13.30;;;-4.50;99.90;;;;;;5050114;28;20119;-65
2024/01/10 08:33:25;;;;;;;26.65;13.02;;;-4.50;99.90;;;;;;5053804;28;20048;-66
2024/01/10 08:35:50;;;;;;;26.13;12.77;;;-4.40;99.90;;;;;;5046891;28;20048;-66
2024/01/10 08:38:16;;;;;;;23.02;11.88;;;-4.40;99.90;;;;;;5040641;28;20064;-66
2024/01/10 08:40:42;;;;;;;23.13;12.52;;;-4.30;99.90;;;;;;5053425;28;20066;-65
2024/01/10 08:43:07;;;;;;;20.40;10.60;;;-4.20;99.90;;;;;;5053943;28;20039;-64
2024/01/10 08:45:33;;;;;;;26.67;12.20;;;-4.10;99.90;;;;;;5044287;28;20170;-62
2024/01/10 08:47:59;;;;;;;20.30;10.52;;;-4.10;99.90;;;;;;5052599;28;20033;-65
2024/01/10 08:50:24;;;;;;;21.80;11.57;;;-4.00;99.90;;;;;;5046001;28;20392;-63
2024/01/10 08:52:50;;;;;;;19.58;9.80;;;-3.90;99.90;;;;;;5037453;28;20067;-64
2024/01/10 08:55:16;;;;;;;19.73;9.25;;;-3.90;99.90;;;;;;5039499;28;20045;-63
2024/01/10 08:57:41;;;;;;;23.50;11.23;;;-3.80;99.90;;;;;;5043779;28;20028;-63
2024/01/10 09:00:11;;;;;;;20.67;10.88;;;-3.80;99.90;;;;;;5047078;28;20479;-63
2024/01/10 09:02:38;;;;;;;21.08;10.32;;;-3.80;99.90;;;;;;5042867;28;20111;-63
2024/01/10 09:05:04;;;;;;;23.65;10.75;;;-3.70;99.90;;;;;;5037435;28;20037;-63
2024/01/10 09:07:30;;;;;;;18.10;9.85;;;-3.60;99.90;;;;;;5042785;28;20414;-62
2024/01/10 09:09:55;;;;;;;17.27;9.75;;;-3.50;99.90;;;;;;5042737;28;20042;-62
2024/01/10 09:12:23;;;;;;;21.80;10.73;;;-3.50;99.90;;;;;;5043034;28;20070;-62
2024/01/10 09:14:48;;;;;;;19.83;10.55;;;-3.40;99.90;;;;;;5044319;28;20033;-63
2024/01/10 09:17:14;;;;;;;17.25;9.57;;;-3.40;99.90;;;;;;5044021;28;20059;-63
2024/01/10 09:19:39;;;;;;;20.73;10.23;;;-3.40;99.90;;;;;;5042667;28;20123;-63
2024/01/10 09:22:05;;;;;;;20.85;10.48;;;-3.30;99.90;;;;;;5044029;28;20091;-63
2024/01/10 09:24:30;;;;;;;19.50;10.57;;;-3.30;99.90;;;;;;5044114;28;20095;-64
2024/01/10 09:26:56;;;;;;;22.55;10.00;;;-3.30;99.90;;;;;;5039819;28;20099;-64
2024/01/10 09:29:22;;;;;;;17.35;9.80;;;-3.20;99.90;;;;;;5045302;28;20037;-64
2024/01/10 09:31:48;;;;;;;18.95;10.10;;;-3.20;99.90;;;;;;5044651;28;20080;-64
2024/01/10 09:34:13;;;;;;;18.25;9.27;;;-3.10;99.90;;;;;;5039427;28;20069;-64
2024/01/10 09:36:39;;;;;;;20.55;9.65;;;-3.10;99.90;;;;;;5044539;28;20491;-64
2024/01/10 09:39:05;;;;;;;20.83;9.52;;;-3.00;99.90;;;;;;5043161;28;20499;-64
2024/01/10 09:41:34;;;;;;;17.80;9.60;;;-3.00;99.90;;;;;;5040669;28;20521;-66
2024/01/10 09:44:00;;;;;;;17.48;8.95;;;-2.90;99.90;;;;;;5042898;28;20059;-63
2024/01/10 09:46:29;;;;;;;16.65;9.32;;;-2.90;99.90;;;;;;5047216;28;20563;-64
2024/01/10 09:48:55;;;;;;;18.40;9.48;;;-2.80;99.90;;;;;;5052209;28;20072;-64
2024/01/10 09:51:22;;;;;;;19.92;9.65;;;-2.80;99.90;;;;;;5040742;28;20609;-64
2024/01/10 09:53:50;;;;;;;16.38;9.27;;;-2.70;99.90;;;;;;5052438;28;20040;-64
2024/01/10 09:56:15;;;;;;;18.92;9.85;;;-2.70;99.90;;;;;;5052753;28;20470;-65
2024/01/10 09:58:46;;;;;;;16.05;8.40;;;-2.60;99.90;;;;;;5037468;28;20567;-64
2024/01/10 10:01:12;;;;;;;21.60;10.05;;;-2.60;99.90;;;;;;5048687;28;20041;-65
2024/01/10 10:03:40;;;;;;;18.63;9.05;;;-2.60;99.90;;;;;;5051873;28;20036;-64
2024/01/10 10:06:08;;;;;;;19.27;9.77;;;-2.50;99.90;;;;;;5046897;28;20119;-64
2024/01/10 10:08:33;;;;;;;19.73;9.57;;;-2.50;99.90;;;;;;5041290;28;20084;-64
2024/01/10 10:10:59;;;;;;;17.60;9.57;;;-2.50;99.90;;;;;;5052121;28;20068;-64
2024/01/10 10:13:29;;;;;;;18.52;10.27;;;-2.40;99.90;;;;;;5052273;28;20049;-64
2024/01/10 10:16:01;;;;;;;19.45;9.50;;;-2.40;99.90;;;;;;5040872;28;20487;-64
2024/01/10 10:18:31;;;;;;;17.85;9.15;;;-2.30;99.90;;;;;;5051299;28;20378;-64
2024/01/10 10:21:09;;;;;;;18.98;9.82;;;-2.30;99.90;;;;;;5051036;28;20383;-64
2024/01/10 10:23:35;;;;;;;19.00;9.95;;;-2.30;99.90;;;;;;5050855;28;20041;-64
2024/01/10 10:26:10;;;;;;;19.02;10.02;;;-2.20;99.90;;;;;;5041481;28;20041;-64
2024/01/10 10:28:36;;;;;;;16.60;8.55;;;-2.20;99.90;;;;;;5051168;28;20103;-64
2024/01/10 10:31:02;;;;;;;20.90;10.02;;;-2.10;99.90;;;;;;5051807;28;20388;-66
2024/01/10 10:33:28;;;;;;;16.80;8.30;;;-2.10;99.90;;;;;;5044818;28;20033;-66
2024/01/10 10:35:55;;;;;;;18.25;10.18;;;-2.00;99.90;;;;;;5045228;28;20033;-66
2024/01/10 10:38:22;;;;;;;20.05;10.30;;;-1.90;99.90;;;;;;5051671;28;20045;-66
2024/01/10 10:40:48;;;;;;;19.30;9.68;;;-1.90;99.90;;;;;;5046911;28;20047;-66
2024/01/10 10:43:17;;;;;;;25.52;8.75;;;-1.80;99.90;;;;;;5035626;28;20037;-66
2024/01/10 10:45:48;;;;;;;20.52;10.20;;;-1.80;99.90;;;;;;5043768;28;20123;-66
2024/01/10 10:48:19;;;;;;;16.27;8.68;;;-1.70;99.90;;;;;;5047940;28;20044;-66
2024/01/10 10:50:56;;;;;;;19.87;10.33;;;-1.70;99.90;;;;;;5041786;28;20056;-64
2024/01/10 10:53:24;;;;;;;17.98;9.27;;;-1.70;99.90;;;;;;5032448;28;20291;-65
2024/01/10 10:55:51;;;;;;;21.70;8.65;;;-1.60;99.90;;;;;;5043379;28;20120;-66
2024/01/10 10:58:17;;;;;;;17.20;8.13;;;-1.60;99.90;;;;;;5039678;28;20040;-66
2024/01/10 11:00:44;;;;;;;15.52;8.55;;;-1.50;99.90;;;;;;5046585;28;20037;-64
2024/01/10 11:03:13;;;;;;;21.85;8.65;;;-1.50;99.90;;;;;;5049441;28;20072;-64
2024/01/10 11:05:41;;;;;;;20.23;8.65;;;-1.50;99.90;;;;;;5045490;28;20120;-63
2024/01/10 11:08:10;;;;;;;17.80;8.77;;;-1.40;99.90;;;;;;5048867;28;20095;-65
2024/01/10 11:10:39;;;;;;;17.88;8.77;;;-1.40;99.90;;;;;;5062197;28;20052;-65
2024/01/10 11:13:25;;;;;;;20.02;8.43;;;-1.30;99.90;;;;;;5067418;28;20375;-70
2024/01/10 11:16:18;;;;;;;17.15;8.65;;;-1.20;99.90;;;;;;5048395;28;20067;-65
2024/01/10 11:18:44;;;;;;;15.32;8.27;;;-1.20;99.90;;;;;;5043162;28;20036;-66
2024/01/10 11:21:57;;;;;;;14.23;8.10;;;-1.10;99.90;;;;;;5051933;28;20499;-66
2024/01/10 11:24:24;;;;;;;15.98;8.45;;;-1.10;99.90;;;;;;4984329;28;20073;-65
2024/01/10 11:26:50;;;;;;;15.98;7.97;;;-1.10;99.90;;;;;;5031706;28;20056;-67
2024/01/10 11:29:15;;;;;;;17.02;7.97;;;-1.10;99.90;;;;;;5049079;28;20044;-70
2024/01/10 11:31:41;;;;;;;16.25;8.40;;;-1.00;99.90;;;;;;5030991;28;20044;-65
2024/01/10 11:34:08;;;;;;;16.58;8.57;;;-0.90;99.90;;;;;;5045905;28;20033;-66
2024/01/10 11:36:34;;;;;;;19.15;8.85;;;-0.90;99.90;;;;;;5051038;28;20045;-68
2024/01/10 11:39:04;;;;;;;14.73;7.95;;;-0.90;99.90;;;;;;5044415;28;20047;-65
2024/01/10 11:41:30;;;;;;;17.70;9.00;;;-0.80;99.90;;;;;;5050315;28;20037;-66
2024/01/10 11:44:11;;;;;;;18.50;9.02;;;-0.80;99.90;;;;;;5050280;28;20044;-65
2024/01/10 11:46:40;;;;;;;15.63;7.78;;;-0.70;99.70;;;;;;5046890;28;20060;-66
2024/01/10 11:49:15;;;;;;;16.38;8.32;;;-0.70;99.90;;;;;;5049900;28;20041;-67
2024/01/10 11:51:45;;;;;;;15.40;7.50;;;-0.70;99.90;;;;;;5043043;28;20095;-67
2024/01/10 11:54:11;;;;;;;15.45;7.57;;;-0.70;99.70;;;;;;5049674;28;20036;-67
2024/01/10 11:56:42;;;;;;;15.10;8.32;;;-0.70;99.90;;;;;;5034509;28;20049;-68
2024/01/10 11:59:10;;;;;;;16.60;7.93;;;-0.70;99.90;;;;;;5034944;28;20109;-67
2024/01/10 12:01:37;;;;;;;19.20;8.35;;;-0.60;99.80;;;;;;5049972;28;20048;-66
2024/01/10 12:04:04;;;;;;;14.15;7.15;;;-0.50;99.90;;;;;;5048130;28;20033;-64
2024/01/10 12:06:36;;;;;;;14.13;7.57;;;-0.50;99.50;;;;;;5040938;28;20124;-64
2024/01/10 12:09:08;;;;;;;15.35;7.70;;;-0.50;99.40;;;;;;5050434;28;20056;-64
2024/01/10 12:11:34;;;;;;;13.52;6.82;;;-0.50;99.90;;;;;;5045172;28;20099;-63
2024/01/10 12:14:01;;;;;;;17.13;8.00;;;-0.50;99.90;;;;;;5043147;28;20037;-63
2024/01/10 12:16:27;;;;;;;16.83;8.00;;;-0.40;99.50;;;;;;5052496;28;20124;-63
2024/01/10 12:18:52;;;;;;;18.13;8.38;;;-0.40;99.90;;;;;;5054543;28;20071;-63
2024/01/10 12:21:18;;;;;;;14.02;7.72;;;-0.40;99.90;;;;;;5044585;28;20040;-63
2024/01/10 12:23:44;;;;;;;17.90;7.95;;;-0.40;99.80;;;;;;5038909;28;20037;-66
2024/01/10 12:26:13;;;;;;;13.43;7.43;;;-0.30;99.80;;;;;;5054283;28;20533;-63
2024/01/10 12:28:39;;;;;;;15.90;8.57;;;-0.30;99.90;;;;;;5047289;28;20123;-63